sensor_id;sensor_type;location;lat;lon;timestamp;temperature;humidity
22682;DHT22;11508;50.856;4.380;2023-02-15T00:00:44;8.50;99.90
22682;DHT22;11508;50.856;4.380;2023-02-15T00:03:17;8.60;99.90
22682;DHT22;11508;50.856;4.380;2023-02-15T00:05:49;8.60;99.90
22682;DHT22;11508;50.856;4.380;2023-02-15T00:08:17;8.60;99.90
22682;DHT22;11508;50.856;4.380;2023-02-15T00:11:13;8.70;99.90
22682;DHT22;11508;50.856;4.380;2023-02-15T00:13:41;8.70;99.90
22682;DHT22;11508;50.856;4.380;2023-02-15T00:16:18;8.70;99.90
22682;DHT22;11508;50.856;4.380;2023-02-15T00:18:53;8.70;15.50
22682;DHT22;11508;50.856;4.380;2023-02-15T00:21:20;8.70;1.00
22682;DHT22;11508;50.856;4.380;2023-02-15T00:23:57;8.60;99.90
22682;DHT22;11508;50.856;4.380;2023-02-15T00:26:26;8.50;99.90
22682;DHT22;11508;50.856;4.380;2023-02-15T00:29:09;8.60;99.90
22682;DHT22;11508;50.856;4.380;2023-02-15T00:31:59;8.60;99.90
22682;DHT22;11508;50.856;4.380;2023-02-15T00:34:29;8.60;96.90
22682;DHT22;11508;50.856;4.380;2023-02-15T00:36:57;8.60;76.20
22682;DHT22;11508;50.856;4.380;2023-02-15T00:39:30;8.60;1.90
22682;DHT22;11508;50.856;4.380;2023-02-15T00:42:04;8.50;1.00
22682;DHT22;11508;50.856;4.380;2023-02-15T00:44:41;8.40;99.90
22682;DHT22;11508;50.856;4.380;2023-02-15T00:47:08;8.60;99.90
22682;DHT22;11508;50.856;4.380;2023-02-15T00:49:54;8.60;11.70
22682;DHT22;11508;50.856;4.380;2023-02-15T00:52:23;8.60;3.70
22682;DHT22;11508;50.856;4.380;2023-02-15T00:54:54;8.40;21.60
22682;DHT22;11508;50.856;4.380;2023-02-15T00:57:27;8.30;99.90
22682;DHT22;11508;50.856;4.380;2023-02-15T00:59:59;8.40;99.90
22682;DHT22;11508;50.856;4.380;2023-02-15T01:02:33;8.40;99.90
22682;DHT22;11508;50.856;4.380;2023-02-15T01:05:18;8.30;99.90
22682;DHT22;11508;50.856;4.380;2023-02-15T01:07:50;8.30;99.90
22682;DHT22;11508;50.856;4.380;2023-02-15T01:10:25;8.20;99.90
22682;DHT22;11508;50.856;4.380;2023-02-15T01:12:59;8.20;99.90
22682;DHT22;11508;50.856;4.380;2023-02-15T01:15:52;8.20;99.90
22682;DHT22;11508;50.856;4.380;2023-02-15T01:18:24;8.20;99.90
22682;DHT22;11508;50.856;4.380;2023-02-15T01:21:18;8.20;99.90
22682;DHT22;11508;50.856;4.380;2023-02-15T01:23:52;8.20;99.90
22682;DHT22;11508;50.856;4.380;2023-02-15T01:26:19;8.20;1.00
22682;DHT22;11508;50.856;4.380;2023-02-15T01:28:45;8.10;1.00
22682;DHT22;11508;50.856;4.380;2023-02-15T01:31:20;8.10;1.00
22682;DHT22;11508;50.856;4.380;2023-02-15T01:34:06;8.10;1.00
22682;DHT22;11508;50.856;4.380;2023-02-15T01:36:40;8.10;99.90
22682;DHT22;11508;50.856;4.380;2023-02-15T01:39:22;8.10;99.90
22682;DHT22;11508;50.856;4.380;2023-02-15T01:41:49;8.20;99.90
22682;DHT22;11508;50.856;4.380;2023-02-15T01:46:28;8.20;99.90
22682;DHT22;11508;50.856;4.380;2023-02-15T01:48:02;8.20;99.90
22682;DHT22;11508;50.856;4.380;2023-02-15T01:50:52;8.10;99.90
22682;DHT22;11508;50.856;4.380;2023-02-15T01:53:48;8.00;99.90
22682;DHT22;11508;50.856;4.380;2023-02-15T01:56:30;8.00;99.90
22682;DHT22;11508;50.856;4.380;2023-02-15T01:59:03;7.90;99.90
22682;DHT22;11508;50.856;4.380;2023-02-15T02:01:31;7.80;99.90
22682;DHT22;11508;50.856;4.380;2023-02-15T02:07:18;7.90;1.00
22682;DHT22;11508;50.856;4.380;2023-02-15T02:09:58;8.00;99.90
22682;DHT22;11508;50.856;4.380;2023-02-15T02:12:25;8.00;99.90
22682;DHT22;11508;50.856;4.380;2023-02-15T02:15:02;8.00;99.90
22682;DHT22;11508;50.856;4.380;2023-02-15T02:48:08;7.70;99.90
22682;DHT22;11508;50.856;4.380;2023-02-15T02:50:41;7.70;99.90
22682;DHT22;11508;50.856;4.380;2023-02-15T02:53:13;7.60;1.00
22682;DHT22;11508;50.856;4.380;2023-02-15T02:59:02;7.60;65.00
22682;DHT22;11508;50.856;4.380;2023-02-15T03:01:40;7.50;99.90
22682;DHT22;11508;50.856;4.380;2023-02-15T03:04:17;7.50;99.90
22682;DHT22;11508;50.856;4.380;2023-02-15T03:07:01;7.30;59.30
22682;DHT22;11508;50.856;4.380;2023-02-15T03:18:26;7.10;99.90
22682;DHT22;11508;50.856;4.380;2023-02-15T03:21:01;7.00;99.90
22682;DHT22;11508;50.856;4.380;2023-02-15T03:23:38;7.00;99.90
22682;DHT22;11508;50.856;4.380;2023-02-15T03:26:29;7.00;99.90
22682;DHT22;11508;50.856;4.380;2023-02-15T03:28:58;7.00;99.90
22682;DHT22;11508;50.856;4.380;2023-02-15T03:31:36;7.00;99.90
22682;DHT22;11508;50.856;4.380;2023-02-15T03:34:14;6.90;99.90
22682;DHT22;11508;50.856;4.380;2023-02-15T03:37:26;7.00;99.90
22682;DHT22;11508;50.856;4.380;2023-02-15T03:52:05;6.90;99.90
22682;DHT22;11508;50.856;4.380;2023-02-15T03:54:48;6.90;99.90
22682;DHT22;11508;50.856;4.380;2023-02-15T03:57:34;6.90;99.90
22682;DHT22;11508;50.856;4.380;2023-02-15T04:00:34;6.80;99.90
22682;DHT22;11508;50.856;4.380;2023-02-15T04:03:39;6.80;99.90
22682;DHT22;11508;50.856;4.380;2023-02-15T04:06:06;6.80;99.90
22682;DHT22;11508;50.856;4.380;2023-02-15T04:08:43;6.80;99.90
22682;DHT22;11508;50.856;4.380;2023-02-15T04:11:32;6.70;99.90
22682;DHT22;11508;50.856;4.380;2023-02-15T04:14:07;6.70;99.90
22682;DHT22;11508;50.856;4.380;2023-02-15T04:17:12;6.70;99.90
22682;DHT22;11508;50.856;4.380;2023-02-15T04:19:37;6.70;99.90
22682;DHT22;11508;50.856;4.380;2023-02-15T04:22:30;6.80;99.90
22682;DHT22;11508;50.856;4.380;2023-02-15T04:25:35;6.80;94.10
22682;DHT22;11508;50.856;4.380;2023-02-15T04:28:10;6.80;42.90
22682;DHT22;11508;50.856;4.380;2023-02-15T04:30:38;6.80;1.00
22682;DHT22;11508;50.856;4.380;2023-02-15T04:33:06;6.80;1.00
22682;DHT22;11508;50.856;4.380;2023-02-15T04:35:36;6.80;1.00
22682;DHT22;11508;50.856;4.380;2023-02-15T04:38:04;6.80;1.00
22682;DHT22;11508;50.856;4.380;2023-02-15T04:40:37;6.80;1.00
22682;DHT22;11508;50.856;4.380;2023-02-15T04:43:05;6.70;1.00
22682;DHT22;11508;50.856;4.380;2023-02-15T04:45:32;6.70;5.80
22682;DHT22;11508;50.856;4.380;2023-02-15T04:48:00;6.90;1.00
22682;DHT22;11508;50.856;4.380;2023-02-15T04:50:27;6.80;1.00
22682;DHT22;11508;50.856;4.380;2023-02-15T04:52:57;6.90;1.00
22682;DHT22;11508;50.856;4.380;2023-02-15T04:55:33;6.80;1.00
22682;DHT22;11508;50.856;4.380;2023-02-15T04:58:02;6.70;1.00
22682;DHT22;11508;50.856;4.380;2023-02-15T05:00:49;6.80;1.00
22682;DHT22;11508;50.856;4.380;2023-02-15T05:03:22;6.70;1.00
22682;DHT22;11508;50.856;4.380;2023-02-15T05:05:49;6.70;1.00
22682;DHT22;11508;50.856;4.380;2023-02-15T05:08:20;6.70;1.00
22682;DHT22;11508;50.856;4.380;2023-02-15T05:10:53;6.80;29.30
22682;DHT22;11508;50.856;4.380;2023-02-15T05:13:21;6.80;1.00
22682;DHT22;11508;50.856;4.380;2023-02-15T05:15:52;6.90;1.00
22682;DHT22;11508;50.856;4.380;2023-02-15T05:18:37;6.90;99.90
22682;DHT22;11508;50.856;4.380;2023-02-15T05:21:05;6.90;99.90
22682;DHT22;11508;50.856;4.380;2023-02-15T05:23:31;6.90;99.90
22682;DHT22;11508;50.856;4.380;2023-02-15T05:25:57;7.10;99.90
22682;DHT22;11508;50.856;4.380;2023-02-15T05:28:54;7.10;14.30
22682;DHT22;11508;50.856;4.380;2023-02-15T05:34:06;7.10;1.00
22682;DHT22;11508;50.856;4.380;2023-02-15T05:36:34;7.00;1.00
22682;DHT22;11508;50.856;4.380;2023-02-15T05:39:01;6.90;48.50
22682;DHT22;11508;50.856;4.380;2023-02-15T05:41:43;6.80;99.90
22682;DHT22;11508;50.856;4.380;2023-02-15T05:44:09;6.70;1.00
22682;DHT22;11508;50.856;4.380;2023-02-15T05:46:41;6.70;1.00
22682;DHT22;11508;50.856;4.380;2023-02-15T05:49:12;6.80;1.00
22682;DHT22;11508;50.856;4.380;2023-02-15T05:51:39;6.60;1.00
22682;DHT22;11508;50.856;4.380;2023-02-15T05:54:12;6.60;19.40
22682;DHT22;11508;50.856;4.380;2023-02-15T05:56:51;6.80;6.20
22682;DHT22;11508;50.856;4.380;2023-02-15T05:59:36;6.80;1.00
22682;DHT22;11508;50.856;4.380;2023-02-15T06:02:10;6.80;99.90
22682;DHT22;11508;50.856;4.380;2023-02-15T06:04:49;6.80;99.90
22682;DHT22;11508;50.856;4.380;2023-02-15T06:07:35;6.80;99.90
22682;DHT22;11508;50.856;4.380;2023-02-15T06:10:22;6.80;99.90
22682;DHT22;11508;50.856;4.380;2023-02-15T06:12:49;6.80;99.90
22682;DHT22;11508;50.856;4.380;2023-02-15T06:15:27;6.80;99.90
22682;DHT22;11508;50.856;4.380;2023-02-15T06:17:55;6.80;99.90
22682;DHT22;11508;50.856;4.380;2023-02-15T06:20:29;6.80;99.90
22682;DHT22;11508;50.856;4.380;2023-02-15T06:22:56;7.00;99.90
22682;DHT22;11508;50.856;4.380;2023-02-15T06:25:34;6.90;99.90
22682;DHT22;11508;50.856;4.380;2023-02-15T06:28:04;6.90;99.90
22682;DHT22;11508;50.856;4.380;2023-02-15T06:30:31;6.80;99.90
22682;DHT22;11508;50.856;4.380;2023-02-15T06:32:58;6.80;99.90
22682;DHT22;11508;50.856;4.380;2023-02-15T06:35:24;6.80;99.90
22682;DHT22;11508;50.856;4.380;2023-02-15T06:37:58;6.80;99.90
22682;DHT22;11508;50.856;4.380;2023-02-15T06:40:30;6.70;99.90
22682;DHT22;11508;50.856;4.380;2023-02-15T06:45:42;6.50;99.90
22682;DHT22;11508;50.856;4.380;2023-02-15T06:48:33;6.60;99.90
22682;DHT22;11508;50.856;4.380;2023-02-15T06:51:01;6.60;99.90
22682;DHT22;11508;50.856;4.380;2023-02-15T06:53:57;6.60;99.90
22682;DHT22;11508;50.856;4.380;2023-02-15T06:56:32;6.50;99.90
22682;DHT22;11508;50.856;4.380;2023-02-15T06:59:09;6.50;99.90
22682;DHT22;11508;50.856;4.380;2023-02-15T07:01:42;6.50;99.90
22682;DHT22;11508;50.856;4.380;2023-02-15T07:04:31;6.50;99.90
22682;DHT22;11508;50.856;4.380;2023-02-15T07:07:15;6.60;99.90
22682;DHT22;11508;50.856;4.380;2023-02-15T07:09:50;6.60;99.90
22682;DHT22;11508;50.856;4.380;2023-02-15T07:12:22;6.70;99.90
22682;DHT22;11508;50.856;4.380;2023-02-15T07:15:16;6.80;99.90
22682;DHT22;11508;50.856;4.380;2023-02-15T07:17:46;6.80;44.20
22682;DHT22;11508;50.856;4.380;2023-02-15T07:20:32;6.90;1.00
22682;DHT22;11508;50.856;4.380;2023-02-15T07:23:11;6.90;1.00
22682;DHT22;11508;50.856;4.380;2023-02-15T07:25:38;6.90;99.90
22682;DHT22;11508;50.856;4.380;2023-02-15T07:28:13;6.90;99.90
22682;DHT22;11508;50.856;4.380;2023-02-15T07:30:46;6.90;99.90
22682;DHT22;11508;50.856;4.380;2023-02-15T07:33:15;7.00;99.90
22682;DHT22;11508;50.856;4.380;2023-02-15T07:35:57;7.10;1.00
22682;DHT22;11508;50.856;4.380;2023-02-15T07:38:30;7.10;1.00
22682;DHT22;11508;50.856;4.380;2023-02-15T07:41:04;7.20;99.90
22682;DHT22;11508;50.856;4.380;2023-02-15T07:43:41;7.30;99.90
22682;DHT22;11508;50.856;4.380;2023-02-15T07:46:16;7.30;99.90
22682;DHT22;11508;50.856;4.380;2023-02-15T07:49:02;7.50;1.00
22682;DHT22;11508;50.856;4.380;2023-02-15T07:51:36;7.40;99.90
22682;DHT22;11508;50.856;4.380;2023-02-15T07:54:17;7.50;99.90
22682;DHT22;11508;50.856;4.380;2023-02-15T07:56:45;7.40;99.90
22682;DHT22;11508;50.856;4.380;2023-02-15T07:59:19;7.50;47.50
22682;DHT22;11508;50.856;4.380;2023-02-15T08:01:47;7.60;99.90
22682;DHT22;11508;50.856;4.380;2023-02-15T08:04:14;7.60;99.90
22682;DHT22;11508;50.856;4.380;2023-02-15T08:06:47;7.70;1.00
22682;DHT22;11508;50.856;4.380;2023-02-15T08:09:14;7.90;99.90
22682;DHT22;11508;50.856;4.380;2023-02-15T08:11:43;8.00;1.00
22682;DHT22;11508;50.856;4.380;2023-02-15T08:14:12;8.00;99.90
22682;DHT22;11508;50.856;4.380;2023-02-15T08:17:06;8.10;99.90
22682;DHT22;11508;50.856;4.380;2023-02-15T08:20:00;8.20;1.00
22682;DHT22;11508;50.856;4.380;2023-02-15T08:22:27;8.30;99.90
22682;DHT22;11508;50.856;4.380;2023-02-15T08:25:04;8.30;99.90
22682;DHT22;11508;50.856;4.380;2023-02-15T08:27:58;8.50;1.00
22682;DHT22;11508;50.856;4.380;2023-02-15T08:30:26;8.70;99.90
22682;DHT22;11508;50.856;4.380;2023-02-15T08:32:52;8.80;99.90
22682;DHT22;11508;50.856;4.380;2023-02-15T08:35:21;8.90;99.90
22682;DHT22;11508;50.856;4.380;2023-02-15T08:37:48;9.00;99.90
22682;DHT22;11508;50.856;4.380;2023-02-15T08:40:13;9.00;99.90
22682;DHT22;11508;50.856;4.380;2023-02-15T08:42:39;9.10;99.90
22682;DHT22;11508;50.856;4.380;2023-02-15T08:45:12;9.20;99.90
22682;DHT22;11508;50.856;4.380;2023-02-15T08:47:40;9.40;99.90
22682;DHT22;11508;50.856;4.380;2023-02-15T08:50:08;9.40;99.90
22682;DHT22;11508;50.856;4.380;2023-02-15T08:52:43;9.40;99.90
22682;DHT22;11508;50.856;4.380;2023-02-15T08:55:15;9.50;99.90
22682;DHT22;11508;50.856;4.380;2023-02-15T08:57:41;9.50;99.90
22682;DHT22;11508;50.856;4.380;2023-02-15T09:00:11;9.50;99.90
22682;DHT22;11508;50.856;4.380;2023-02-15T09:02:39;9.50;99.90
22682;DHT22;11508;50.856;4.380;2023-02-15T09:05:06;9.60;99.90
22682;DHT22;11508;50.856;4.380;2023-02-15T09:07:34;9.60;99.90
22682;DHT22;11508;50.856;4.380;2023-02-15T09:10:08;9.60;99.90
22682;DHT22;11508;50.856;4.380;2023-02-15T09:12:45;9.60;99.90
22682;DHT22;11508;50.856;4.380;2023-02-15T09:15:16;9.80;99.90
22682;DHT22;11508;50.856;4.380;2023-02-15T09:17:42;9.70;99.90
22682;DHT22;11508;50.856;4.380;2023-02-15T09:20:46;9.80;99.90
22682;DHT22;11508;50.856;4.380;2023-02-15T09:23:11;9.90;99.90
22682;DHT22;11508;50.856;4.380;2023-02-15T09:25:40;9.90;99.90
22682;DHT22;11508;50.856;4.380;2023-02-15T09:28:20;9.90;99.90
22682;DHT22;11508;50.856;4.380;2023-02-15T09:31:25;10.00;99.90
22682;DHT22;11508;50.856;4.380;2023-02-15T09:33:53;10.10;99.90
22682;DHT22;11508;50.856;4.380;2023-02-15T09:36:33;10.20;99.90
22682;DHT22;11508;50.856;4.380;2023-02-15T09:39:26;10.20;99.90
22682;DHT22;11508;50.856;4.380;2023-02-15T09:45:13;10.30;99.90
22682;DHT22;11508;50.856;4.380;2023-02-15T09:48:11;10.30;99.90
22682;DHT22;11508;50.856;4.380;2023-02-15T09:57:11;10.80;99.90
22682;DHT22;11508;50.856;4.380;2023-02-15T10:15:30;10.50;99.90
22682;DHT22;11508;50.856;4.380;2023-02-15T10:27:47;10.50;99.90
22682;DHT22;11508;50.856;4.380;2023-02-15T10:45:28;10.80;99.90
22682;DHT22;11508;50.856;4.380;2023-02-15T11:00:37;10.50;99.90
22682;DHT22;11508;50.856;4.380;2023-02-15T11:03:39;10.70;99.90
22682;DHT22;11508;50.856;4.380;2023-02-15T11:06:16;10.80;99.90
22682;DHT22;11508;50.856;4.380;2023-02-15T11:08:56;10.80;99.90
22682;DHT22;11508;50.856;4.380;2023-02-15T11:11:34;11.20;99.90
22682;DHT22;11508;50.856;4.380;2023-02-15T11:17:38;11.50;99.90
22682;DHT22;11508;50.856;4.380;2023-02-15T11:23:01;11.40;99.90
22682;DHT22;11508;50.856;4.380;2023-02-15T11:25:57;11.50;99.90
22682;DHT22;11508;50.856;4.380;2023-02-15T11:28:42;11.40;99.90
22682;DHT22;11508;50.856;4.380;2023-02-15T11:31:20;11.30;99.90
22682;DHT22;11508;50.856;4.380;2023-02-15T11:33:59;11.20;99.90
22682;DHT22;11508;50.856;4.380;2023-02-15T11:36:35;11.40;99.90
22682;DHT22;11508;50.856;4.380;2023-02-15T11:39:16;11.50;99.90
22682;DHT22;11508;50.856;4.380;2023-02-15T11:41:53;11.30;99.90
22682;DHT22;11508;50.856;4.380;2023-02-15T11:44:41;11.30;99.90
22682;DHT22;11508;50.856;4.380;2023-02-15T11:47:12;11.70;99.90
22682;DHT22;11508;50.856;4.380;2023-02-15T11:49:41;12.00;99.90
22682;DHT22;11508;50.856;4.380;2023-02-15T11:52:12;12.50;99.90
22682;DHT22;11508;50.856;4.380;2023-02-15T11:54:46;12.50;1.00
22682;DHT22;11508;50.856;4.380;2023-02-15T11:57:39;12.40;1.00
22682;DHT22;11508;50.856;4.380;2023-02-15T12:03:00;12.50;1.00
22682;DHT22;11508;50.856;4.380;2023-02-15T12:05:46;12.60;1.00
22682;DHT22;11508;50.856;4.380;2023-02-15T12:08:40;12.60;1.00
22682;DHT22;11508;50.856;4.380;2023-02-15T12:11:40;12.70;1.00
22682;DHT22;11508;50.856;4.380;2023-02-15T12:14:16;12.80;1.00
22682;DHT22;11508;50.856;4.380;2023-02-15T12:17:00;12.80;1.00
22682;DHT22;11508;50.856;4.380;2023-02-15T12:19:51;12.80;1.00
22682;DHT22;11508;50.856;4.380;2023-02-15T12:22:28;12.70;1.00
22682;DHT22;11508;50.856;4.380;2023-02-15T12:27:54;12.80;1.00
22682;DHT22;11508;50.856;4.380;2023-02-15T12:36:44;12.90;1.00
22682;DHT22;11508;50.856;4.380;2023-02-15T12:39:31;13.50;1.00
22682;DHT22;11508;50.856;4.380;2023-02-15T12:42:20;14.30;1.00
22682;DHT22;11508;50.856;4.380;2023-02-15T12:45:27;14.60;99.90
22682;DHT22;11508;50.856;4.380;2023-02-15T12:52:00;14.70;99.90
22682;DHT22;11508;50.856;4.380;2023-02-15T12:54:52;15.00;99.90
22682;DHT22;11508;50.856;4.380;2023-02-15T12:57:39;15.40;99.90
22682;DHT22;11508;50.856;4.380;2023-02-15T13:00:25;15.80;99.90
22682;DHT22;11508;50.856;4.380;2023-02-15T13:03:02;15.90;99.90
22682;DHT22;11508;50.856;4.380;2023-02-15T13:08:31;15.80;99.90
22682;DHT22;11508;50.856;4.380;2023-02-15T13:11:21;15.60;99.90
22682;DHT22;11508;50.856;4.380;2023-02-15T13:17:09;15.80;99.90
22682;DHT22;11508;50.856;4.380;2023-02-15T13:19:56;16.20;99.90
22682;DHT22;11508;50.856;4.380;2023-02-15T13:22:43;16.00;99.90
22682;DHT22;11508;50.856;4.380;2023-02-15T13:25:41;15.30;99.90
22682;DHT22;11508;50.856;4.380;2023-02-15T13:28:40;15.20;99.90
22682;DHT22;11508;50.856;4.380;2023-02-15T13:31:26;15.10;99.90
22682;DHT22;11508;50.856;4.380;2023-02-15T14:07:07;14.50;99.90
22682;DHT22;11508;50.856;4.380;2023-02-15T14:10:00;14.40;99.90
22682;DHT22;11508;50.856;4.380;2023-02-15T14:16:03;14.60;99.90
22682;DHT22;11508;50.856;4.380;2023-02-15T14:22:04;14.80;99.90
22682;DHT22;11508;50.856;4.380;2023-02-15T14:30:45;14.00;99.90
22682;DHT22;11508;50.856;4.380;2023-02-15T14:33:33;13.90;99.90
22682;DHT22;11508;50.856;4.380;2023-02-15T14:36:22;13.90;99.90
22682;DHT22;11508;50.856;4.380;2023-02-15T14:51:03;13.70;99.90
22682;DHT22;11508;50.856;4.380;2023-02-15T14:53:38;13.70;99.90
22682;DHT22;11508;50.856;4.380;2023-02-15T14:56:25;13.70;99.90
22682;DHT22;11508;50.856;4.380;2023-02-15T14:59:14;13.80;99.90
22682;DHT22;11508;50.856;4.380;2023-02-15T15:02:25;13.30;99.90
22682;DHT22;11508;50.856;4.380;2023-02-15T15:05:07;13.00;99.90
22682;DHT22;11508;50.856;4.380;2023-02-15T15:10:43;12.90;99.90
22682;DHT22;11508;50.856;4.380;2023-02-15T15:13:51;12.80;99.90
22682;DHT22;11508;50.856;4.380;2023-02-15T15:19:08;13.30;99.90
22682;DHT22;11508;50.856;4.380;2023-02-15T15:24:53;13.20;99.90
22682;DHT22;11508;50.856;4.380;2023-02-15T15:27:43;13.00;99.90
22682;DHT22;11508;50.856;4.380;2023-02-15T15:42:48;12.70;1.00
22682;DHT22;11508;50.856;4.380;2023-02-15T15:48:35;12.60;1.00
22682;DHT22;11508;50.856;4.380;2023-02-15T15:51:31;12.50;1.00
22682;DHT22;11508;50.856;4.380;2023-02-15T15:54:01;12.50;1.00
22682;DHT22;11508;50.856;4.380;2023-02-15T15:56:38;12.50;1.00
22682;DHT22;11508;50.856;4.380;2023-02-15T15:59:20;12.60;1.00
22682;DHT22;11508;50.856;4.380;2023-02-15T16:01:54;12.60;1.00
22682;DHT22;11508;50.856;4.380;2023-02-15T16:04:32;12.40;1.00
22682;DHT22;11508;50.856;4.380;2023-02-15T16:10:25;12.40;1.00
22682;DHT22;11508;50.856;4.380;2023-02-15T16:12:57;12.50;1.00
22682;DHT22;11508;50.856;4.380;2023-02-15T16:18:45;12.30;1.00
22682;DHT22;11508;50.856;4.380;2023-02-15T16:21:27;12.30;3.20
22682;DHT22;11508;50.856;4.380;2023-02-15T16:27:32;12.20;11.20
22682;DHT22;11508;50.856;4.380;2023-02-15T16:30:29;12.10;35.60
22682;DHT22;11508;50.856;4.380;2023-02-15T16:33:15;12.10;60.90
22682;DHT22;11508;50.856;4.380;2023-02-15T16:36:10;12.10;97.00
22682;DHT22;11508;50.856;4.380;2023-02-15T16:39:37;12.10;99.90
22682;DHT22;11508;50.856;4.380;2023-02-15T16:41:56;12.10;99.90
22682;DHT22;11508;50.856;4.380;2023-02-15T16:44:22;12.00;99.90
22682;DHT22;11508;50.856;4.380;2023-02-15T16:46:52;11.90;99.90
22682;DHT22;11508;50.856;4.380;2023-02-15T16:49:24;11.90;99.90
22682;DHT22;11508;50.856;4.380;2023-02-15T16:52:05;12.00;99.90
22682;DHT22;11508;50.856;4.380;2023-02-15T16:54:33;12.00;99.90
22682;DHT22;11508;50.856;4.380;2023-02-15T16:57:00;12.00;99.90
22682;DHT22;11508;50.856;4.380;2023-02-15T16:59:35;11.90;99.90
22682;DHT22;11508;50.856;4.380;2023-02-15T17:02:10;11.80;99.90
22682;DHT22;11508;50.856;4.380;2023-02-15T17:04:37;11.80;99.90
22682;DHT22;11508;50.856;4.380;2023-02-15T17:07:17;11.70;99.90
22682;DHT22;11508;50.856;4.380;2023-02-15T17:09:54;11.70;1.00
22682;DHT22;11508;50.856;4.380;2023-02-15T17:12:46;11.60;1.00
22682;DHT22;11508;50.856;4.380;2023-02-15T17:18:08;11.60;19.20
22682;DHT22;11508;50.856;4.380;2023-02-15T17:20:38;11.50;72.50
22682;DHT22;11508;50.856;4.380;2023-02-15T17:25:52;11.30;99.90
22682;DHT22;11508;50.856;4.380;2023-02-15T17:28:25;11.30;99.90
22682;DHT22;11508;50.856;4.380;2023-02-15T17:30:52;11.30;99.90
22682;DHT22;11508;50.856;4.380;2023-02-15T17:38:32;11.30;99.90
22682;DHT22;11508;50.856;4.380;2023-02-15T17:40:58;11.30;99.90
22682;DHT22;11508;50.856;4.380;2023-02-15T17:43:25;11.30;99.90
22682;DHT22;11508;50.856;4.380;2023-02-15T17:45:53;11.30;99.90
22682;DHT22;11508;50.856;4.380;2023-02-15T17:48:37;11.20;99.90
22682;DHT22;11508;50.856;4.380;2023-02-15T17:51:05;11.30;99.90
22682;DHT22;11508;50.856;4.380;2023-02-15T17:53:32;11.30;99.90
22682;DHT22;11508;50.856;4.380;2023-02-15T17:55:57;11.40;99.90
22682;DHT22;11508;50.856;4.380;2023-02-15T17:58:23;11.50;99.90
22682;DHT22;11508;50.856;4.380;2023-02-15T18:00:55;11.40;99.90
22682;DHT22;11508;50.856;4.380;2023-02-15T18:03:45;11.30;99.90
22682;DHT22;11508;50.856;4.380;2023-02-15T18:06:31;11.20;99.90
22682;DHT22;11508;50.856;4.380;2023-02-15T18:09:17;11.10;1.00
22682;DHT22;11508;50.856;4.380;2023-02-15T18:15:08;11.10;1.00
22682;DHT22;11508;50.856;4.380;2023-02-15T18:17:52;11.00;18.50
22682;DHT22;11508;50.856;4.380;2023-02-15T18:20:21;11.00;99.90
22682;DHT22;11508;50.856;4.380;2023-02-15T18:22:50;11.00;99.90
22682;DHT22;11508;50.856;4.380;2023-02-15T18:25:18;11.00;99.90
22682;DHT22;11508;50.856;4.380;2023-02-15T18:27:52;11.00;99.90
22682;DHT22;11508;50.856;4.380;2023-02-15T18:30:20;11.00;24.30
22682;DHT22;11508;50.856;4.380;2023-02-15T18:32:59;10.90;99.90
22682;DHT22;11508;50.856;4.380;2023-02-15T18:35:30;10.90;99.90
22682;DHT22;11508;50.856;4.380;2023-02-15T18:37:57;10.90;99.90
22682;DHT22;11508;50.856;4.380;2023-02-15T18:40:29;10.90;99.90
22682;DHT22;11508;50.856;4.380;2023-02-15T18:42:55;10.90;99.90
22682;DHT22;11508;50.856;4.380;2023-02-15T18:45:31;10.80;99.90
22682;DHT22;11508;50.856;4.380;2023-02-15T18:48:00;10.70;99.90
22682;DHT22;11508;50.856;4.380;2023-02-15T18:50:33;10.80;99.90
22682;DHT22;11508;50.856;4.380;2023-02-15T18:53:02;10.70;99.90
22682;DHT22;11508;50.856;4.380;2023-02-15T18:55:28;10.60;1.00
22682;DHT22;11508;50.856;4.380;2023-02-15T18:57:56;10.60;99.90
22682;DHT22;11508;50.856;4.380;2023-02-15T19:00:40;10.60;99.90
22682;DHT22;11508;50.856;4.380;2023-02-15T19:03:09;10.70;99.90
22682;DHT22;11508;50.856;4.380;2023-02-15T19:05:36;10.60;99.90
22682;DHT22;11508;50.856;4.380;2023-02-15T19:08:02;10.50;99.90
22682;DHT22;11508;50.856;4.380;2023-02-15T19:10:30;10.40;1.00
22682;DHT22;11508;50.856;4.380;2023-02-15T19:12:57;10.50;1.00
22682;DHT22;11508;50.856;4.380;2023-02-15T19:15:25;10.30;1.00
22682;DHT22;11508;50.856;4.380;2023-02-15T19:17:52;10.30;99.90
22682;DHT22;11508;50.856;4.380;2023-02-15T19:20:27;10.30;99.90
22682;DHT22;11508;50.856;4.380;2023-02-15T19:22:55;10.40;99.90
22682;DHT22;11508;50.856;4.380;2023-02-15T19:25:24;10.40;1.00
22682;DHT22;11508;50.856;4.380;2023-02-15T19:27:51;10.40;1.00
22682;DHT22;11508;50.856;4.380;2023-02-15T19:30:20;10.30;1.00
22682;DHT22;11508;50.856;4.380;2023-02-15T19:32:47;10.30;1.00
22682;DHT22;11508;50.856;4.380;2023-02-15T19:35:20;10.30;1.00
22682;DHT22;11508;50.856;4.380;2023-02-15T19:37:52;10.20;1.00
22682;DHT22;11508;50.856;4.380;2023-02-15T19:42:44;10.20;1.00
22682;DHT22;11508;50.856;4.380;2023-02-15T19:45:18;10.20;1.00
22682;DHT22;11508;50.856;4.380;2023-02-15T19:47:45;10.20;1.00
22682;DHT22;11508;50.856;4.380;2023-02-15T19:50:17;10.10;1.00
22682;DHT22;11508;50.856;4.380;2023-02-15T19:52:43;10.10;1.00
22682;DHT22;11508;50.856;4.380;2023-02-15T19:55:30;10.10;1.00
22682;DHT22;11508;50.856;4.380;2023-02-15T19:57:58;10.10;1.00
22682;DHT22;11508;50.856;4.380;2023-02-15T20:00:26;10.10;99.90
22682;DHT22;11508;50.856;4.380;2023-02-15T20:02:53;10.10;99.90
22682;DHT22;11508;50.856;4.380;2023-02-15T20:05:19;10.00;99.90
22682;DHT22;11508;50.856;4.380;2023-02-15T20:07:50;10.00;99.90
22682;DHT22;11508;50.856;4.380;2023-02-15T20:10:18;10.00;99.90
22682;DHT22;11508;50.856;4.380;2023-02-15T20:12:45;9.90;1.00
22682;DHT22;11508;50.856;4.380;2023-02-15T20:15:37;9.90;1.00
22682;DHT22;11508;50.856;4.380;2023-02-15T20:18:03;9.90;1.00
22682;DHT22;11508;50.856;4.380;2023-02-15T20:20:42;9.90;1.00
22682;DHT22;11508;50.856;4.380;2023-02-15T20:23:24;9.80;99.90
22682;DHT22;11508;50.856;4.380;2023-02-15T20:25:51;9.80;15.60
22682;DHT22;11508;50.856;4.380;2023-02-15T20:28:30;9.80;99.90
22682;DHT22;11508;50.856;4.380;2023-02-15T20:30:56;9.80;99.90
22682;DHT22;11508;50.856;4.380;2023-02-15T20:33:22;9.80;77.20
22682;DHT22;11508;50.856;4.380;2023-02-15T20:35:49;9.80;99.90
22682;DHT22;11508;50.856;4.380;2023-02-15T20:38:21;9.80;99.90
22682;DHT22;11508;50.856;4.380;2023-02-15T20:40:48;9.70;99.90
22682;DHT22;11508;50.856;4.380;2023-02-15T20:43:33;9.60;1.00
22682;DHT22;11508;50.856;4.380;2023-02-15T20:45:59;9.60;99.90
22682;DHT22;11508;50.856;4.380;2023-02-15T20:48:25;9.50;99.90
22682;DHT22;11508;50.856;4.380;2023-02-15T20:50:51;9.70;95.40
22682;DHT22;11508;50.856;4.380;2023-02-15T20:53:20;9.70;16.00
22682;DHT22;11508;50.856;4.380;2023-02-15T20:55:46;9.70;1.00
22682;DHT22;11508;50.856;4.380;2023-02-15T20:58:22;9.60;99.90
22682;DHT22;11508;50.856;4.380;2023-02-15T21:00:48;9.60;99.90
22682;DHT22;11508;50.856;4.380;2023-02-15T21:03:14;9.60;99.90